National Weather Service Raw Text Product

Displaying AFOS PIL: TAFFOD Received: 2018-06-14 05:20 UTC


540 
FTUS43 KDMX 140520
TAFFOD
TAF
KFOD 140520Z 1406/1506 14004KT P6SM BKN100
     FM140800 14005KT P6SM VCTS BKN070CB
     FM141400 14012KT P6SM VCTS BKN110CB
     FM141700 15013G19KT P6SM BKN150
     FM150100 15012KT P6SM FEW250
     FM150400 15009KT P6SM FEW250 WS016/20045KT=